createdAt,value
2022-12-23T00:01:27.271Z,12.70
2022-12-23T00:03:58.635Z,12.70
2022-12-23T00:06:28.782Z,12.70
2022-12-23T00:08:59.505Z,12.70
2022-12-23T00:11:30.546Z,12.70
2022-12-23T00:14:21.431Z,12.70
2022-12-23T00:16:51.563Z,12.80
2022-12-23T00:19:19.965Z,12.80
2022-12-23T00:21:49.781Z,12.70
2022-12-23T00:24:18.205Z,12.70
2022-12-23T00:26:46.548Z,12.70
2022-12-23T00:29:14.953Z,12.70
2022-12-23T00:31:43.419Z,12.70
2022-12-23T00:34:12.979Z,12.70
2022-12-23T00:36:41.348Z,12.80
2022-12-23T00:39:30.981Z,12.70
2022-12-23T00:42:16.542Z,12.70
2022-12-23T00:44:47.652Z,12.80
2022-12-23T00:47:29.764Z,12.70
2022-12-23T00:49:58.007Z,12.70
2022-12-23T00:52:27.332Z,12.70
2022-12-23T00:54:56.852Z,12.70
2022-12-23T00:57:25.005Z,12.90
2022-12-23T00:59:53.205Z,12.80
2022-12-23T01:02:39.218Z,12.80
2022-12-23T01:08:16.652Z,12.70
2022-12-23T01:10:44.859Z,12.70
2022-12-23T01:13:13.116Z,12.70
2022-12-23T01:15:41.332Z,12.70
2022-12-23T01:18:09.492Z,12.70
2022-12-23T01:20:39.112Z,12.70
2022-12-23T01:23:07.910Z,12.70
2022-12-23T01:25:37.520Z,12.70
2022-12-23T01:28:06.169Z,12.60
2022-12-23T01:30:34.911Z,12.60
2022-12-23T01:33:03.441Z,12.60
2022-12-23T01:35:32.059Z,12.60
2022-12-23T01:38:00.576Z,12.60
2022-12-23T01:40:31.275Z,12.60
2022-12-23T01:43:00.100Z,12.60
2022-12-23T01:45:30.585Z,12.40
2022-12-23T01:48:02.580Z,12.60
2022-12-23T01:50:33.945Z,12.70
2022-12-23T01:53:08.127Z,12.60
2022-12-23T01:55:47.142Z,12.60
2022-12-23T01:58:20.612Z,12.60
2022-12-23T02:01:06.853Z,12.60
2022-12-23T02:03:44.791Z,12.60
2022-12-23T02:06:37.184Z,12.70
2022-12-23T02:09:19.110Z,12.60
2022-12-23T02:12:15.402Z,12.60
2022-12-23T02:15:17.772Z,12.70
2022-12-23T02:17:56.395Z,12.70
2022-12-23T02:20:52.392Z,12.70
2022-12-23T02:23:53.428Z,12.70
2022-12-23T02:26:53.062Z,12.70
2022-12-23T02:30:02.809Z,12.70
2022-12-23T02:32:44.056Z,12.60
2022-12-23T02:35:16.220Z,12.60
2022-12-23T02:37:55.633Z,12.60
2022-12-23T02:40:34.643Z,12.60
2022-12-23T02:43:07.787Z,12.60
2022-12-23T02:45:40.433Z,12.70
2022-12-23T02:48:14.853Z,12.70
2022-12-23T02:50:44.811Z,12.60
2022-12-23T02:53:19.944Z,12.60
2022-12-23T02:55:51.553Z,12.60
2022-12-23T02:58:24.705Z,12.60
2022-12-23T03:00:53.604Z,12.80
2022-12-23T03:03:24.198Z,12.60
2022-12-23T03:05:53.466Z,12.60
2022-12-23T03:08:26.493Z,12.60
2022-12-23T03:11:05.381Z,12.60
2022-12-23T03:14:01.152Z,12.60
2022-12-23T03:16:38.614Z,12.60
2022-12-23T03:19:16.027Z,12.60
2022-12-23T03:21:49.265Z,12.60
2022-12-23T03:24:26.315Z,12.60
2022-12-23T03:27:02.764Z,12.60
2022-12-23T03:29:36.969Z,12.60
2022-12-23T03:32:08.136Z,12.60
2022-12-23T03:34:42.637Z,12.60
2022-12-23T03:37:16.977Z,12.60
2022-12-23T03:39:50.686Z,12.60
2022-12-23T03:42:23.796Z,12.60
2022-12-23T03:45:28.073Z,12.60
2022-12-23T03:47:47.826Z,12.60
2022-12-23T03:50:20.631Z,12.60
2022-12-23T03:52:54.233Z,12.60
2022-12-23T03:55:27.691Z,12.60
2022-12-23T03:58:04.104Z,12.60
2022-12-23T04:00:37.423Z,12.60
2022-12-23T04:03:15.159Z,12.60
2022-12-23T04:05:48.598Z,12.60
2022-12-23T04:08:21.173Z,12.60
2022-12-23T04:10:50.214Z,12.60
2022-12-23T04:13:18.433Z,12.60
2022-12-23T04:15:46.901Z,12.60
2022-12-23T04:18:16.272Z,12.60
2022-12-23T04:20:45.816Z,12.60
2022-12-23T04:23:14.014Z,12.60
2022-12-23T04:25:42.182Z,12.60
2022-12-23T04:28:10.523Z,12.60
2022-12-23T04:30:38.760Z,12.60
2022-12-23T04:33:06.907Z,12.60
2022-12-23T04:35:35.335Z,12.50
2022-12-23T04:38:04.911Z,12.60
2022-12-23T04:40:33.701Z,12.60
2022-12-23T04:43:01.884Z,12.60
2022-12-23T04:45:30.125Z,12.50
2022-12-23T04:47:58.584Z,12.50
2022-12-23T04:50:26.765Z,12.60
2022-12-23T04:52:55.749Z,12.60
2022-12-23T04:55:25.936Z,12.60
2022-12-23T04:57:56.476Z,12.50
2022-12-23T05:00:25.299Z,12.60
2022-12-23T05:02:54.550Z,12.60
2022-12-23T05:05:23.739Z,12.60
2022-12-23T05:07:52.394Z,12.60
2022-12-23T05:10:20.843Z,12.60
2022-12-23T05:12:51.393Z,12.60
2022-12-23T05:15:20.156Z,12.60
2022-12-23T05:17:51.011Z,12.60
2022-12-23T05:20:21.784Z,12.60
2022-12-23T05:22:50.729Z,12.60
2022-12-23T05:25:19.061Z,12.60
2022-12-23T05:27:47.358Z,12.60
2022-12-23T05:30:17.145Z,12.50
2022-12-23T05:32:45.440Z,12.60
2022-12-23T05:35:13.602Z,12.60
2022-12-23T05:37:41.922Z,12.60
2022-12-23T05:40:11.235Z,12.60
2022-12-23T05:42:39.680Z,12.50
2022-12-23T05:45:09.022Z,12.50
2022-12-23T05:47:38.719Z,12.50
2022-12-23T05:50:08.244Z,12.50
2022-12-23T05:52:37.518Z,12.50
2022-12-23T05:55:06.328Z,12.60
2022-12-23T05:57:34.568Z,12.60
2022-12-23T06:00:03.796Z,12.50
2022-12-23T06:02:42.320Z,12.50
2022-12-23T06:05:11.799Z,12.50
2022-12-23T06:07:40.563Z,12.50
2022-12-23T06:10:10.767Z,12.50
2022-12-23T06:12:39.126Z,12.60
2022-12-23T06:15:08.806Z,12.60
2022-12-23T06:17:37.339Z,12.60
2022-12-23T06:20:08.309Z,12.60
2022-12-23T06:22:36.886Z,12.60
2022-12-23T06:25:05.616Z,12.60
2022-12-23T06:27:33.822Z,12.60
2022-12-23T06:30:02.022Z,12.60
2022-12-23T06:32:34.532Z,12.70
2022-12-23T06:35:09.089Z,12.60
2022-12-23T06:37:37.678Z,12.60
2022-12-23T06:40:07.187Z,12.60
2022-12-23T06:42:35.418Z,12.60
2022-12-23T06:45:03.798Z,12.60
2022-12-23T06:47:32.038Z,12.60
2022-12-23T06:50:00.241Z,12.60
2022-12-23T06:52:30.213Z,12.60
2022-12-23T06:54:58.753Z,12.70
2022-12-23T06:57:27.051Z,12.70
2022-12-23T06:59:55.618Z,12.70
2022-12-23T07:02:24.007Z,12.70
2022-12-23T07:04:52.628Z,12.70
2022-12-23T07:07:20.878Z,12.70
2022-12-23T07:09:50.677Z,12.70
2022-12-23T07:12:19.399Z,12.90
2022-12-23T07:14:47.749Z,12.70
2022-12-23T07:17:16.242Z,12.70
2022-12-23T07:19:44.908Z,12.70
2022-12-23T07:22:13.307Z,12.70
2022-12-23T07:24:41.892Z,12.70
2022-12-23T07:27:11.552Z,12.70
2022-12-23T07:29:39.910Z,12.70
2022-12-23T07:32:08.233Z,12.70
2022-12-23T07:34:37.148Z,12.70
2022-12-23T07:37:05.409Z,12.70
2022-12-23T07:39:34.851Z,12.70
2022-12-23T07:42:33.992Z,12.70
2022-12-23T07:44:52.780Z,12.70
2022-12-23T07:47:21.125Z,12.70
2022-12-23T07:49:49.403Z,12.70
2022-12-23T07:52:17.842Z,12.70
2022-12-23T07:54:46.400Z,12.70
2022-12-23T07:57:14.655Z,12.70
2022-12-23T07:59:42.923Z,12.70
2022-12-23T08:02:12.982Z,12.90
2022-12-23T08:04:46.018Z,12.70
2022-12-23T08:07:15.019Z,12.70
2022-12-23T08:09:43.492Z,12.70
2022-12-23T08:12:12.121Z,12.70
2022-12-23T08:14:40.297Z,12.70
2022-12-23T08:17:08.792Z,12.70
2022-12-23T08:19:38.567Z,12.70
2022-12-23T08:22:06.961Z,12.70
2022-12-23T08:24:35.584Z,12.70
2022-12-23T08:27:03.933Z,12.70
2022-12-23T08:29:36.230Z,12.80
2022-12-23T08:32:05.344Z,12.70
2022-12-23T08:34:33.977Z,12.70
2022-12-23T08:37:04.013Z,12.70
2022-12-23T08:39:35.485Z,12.80
2022-12-23T08:42:04.865Z,12.70
2022-12-23T08:44:33.230Z,12.80
2022-12-23T08:47:01.765Z,12.80
2022-12-23T08:49:30.365Z,12.80
2022-12-23T08:51:58.812Z,12.80
2022-12-23T08:54:29.454Z,12.80
2022-12-23T08:56:57.793Z,12.80
2022-12-23T08:59:26.000Z,12.80
2022-12-23T09:01:54.595Z,12.70
2022-12-23T09:04:23.039Z,12.80
2022-12-23T09:06:51.589Z,12.80
2022-12-23T09:09:20.130Z,12.80
2022-12-23T09:11:49.879Z,12.80
2022-12-23T09:14:18.091Z,12.80
2022-12-23T09:16:46.488Z,12.80
2022-12-23T09:19:16.699Z,12.80
2022-12-23T09:21:46.967Z,12.80
2022-12-23T09:24:15.579Z,12.80
2022-12-23T09:26:43.898Z,12.80
2022-12-23T09:29:13.511Z,12.80
2022-12-23T09:31:42.201Z,12.80
2022-12-23T09:34:12.109Z,12.80
2022-12-23T09:36:40.583Z,12.80
2022-12-23T09:39:08.855Z,12.80
2022-12-23T09:42:01.761Z,12.80
2022-12-23T09:44:45.853Z,12.80
2022-12-23T09:47:19.307Z,12.90
2022-12-23T09:49:52.784Z,12.80
2022-12-23T09:52:26.795Z,12.80
2022-12-23T09:54:56.633Z,12.80
2022-12-23T09:57:38.541Z,12.80
2022-12-23T10:00:15.159Z,12.80
2022-12-23T10:02:55.784Z,12.80
2022-12-23T10:05:35.301Z,12.90
2022-12-23T10:08:09.007Z,12.80
2022-12-23T10:10:42.133Z,12.80
2022-12-23T10:13:20.489Z,12.80
2022-12-23T10:15:53.018Z,12.90
2022-12-23T10:18:27.137Z,12.80
2022-12-23T10:21:02.749Z,12.90
2022-12-23T10:23:37.721Z,12.80
2022-12-23T10:26:15.651Z,12.80
2022-12-23T10:28:46.559Z,12.80
2022-12-23T10:34:16.370Z,12.80
2022-12-23T10:36:53.937Z,12.90
2022-12-23T10:39:32.013Z,12.80
2022-12-23T10:42:09.719Z,12.90
2022-12-23T10:45:01.738Z,12.90
2022-12-23T10:47:48.326Z,12.80
2022-12-23T10:50:46.183Z,12.90
2022-12-23T10:53:22.095Z,12.90
2022-12-23T10:55:51.557Z,12.90
2022-12-23T10:58:20.877Z,12.90
2022-12-23T11:00:54.471Z,12.90
2022-12-23T11:03:29.028Z,12.90
2022-12-23T11:06:00.640Z,12.90
2022-12-23T11:08:31.817Z,12.90
2022-12-23T11:11:02.136Z,12.90
2022-12-23T11:13:39.313Z,12.90
2022-12-23T11:16:24.497Z,12.90
2022-12-23T11:19:03.034Z,12.90
2022-12-23T11:21:33.407Z,12.90
2022-12-23T11:24:10.223Z,12.90
2022-12-23T11:26:38.805Z,12.90
2022-12-23T11:29:12.697Z,12.90
2022-12-23T11:31:44.332Z,12.90
2022-12-23T11:34:20.035Z,12.90
2022-12-23T11:36:56.620Z,12.90
2022-12-23T11:39:32.907Z,12.90
2022-12-23T11:42:08.522Z,12.90
2022-12-23T11:44:41.429Z,12.90
2022-12-23T11:47:29.197Z,12.90
2022-12-23T11:50:01.238Z,12.90
2022-12-23T11:52:30.909Z,12.90
2022-12-23T11:55:00.944Z,12.90
2022-12-23T11:57:38.609Z,13.20
2022-12-23T12:00:09.407Z,13.00
2022-12-23T12:02:41.448Z,12.90
2022-12-23T12:05:24.088Z,12.90
2022-12-23T12:07:53.609Z,13.00
2022-12-23T12:10:26.505Z,12.90
2022-12-23T12:12:57.937Z,13.00
2022-12-23T12:15:38.261Z,12.90
2022-12-23T12:18:30.093Z,12.90
2022-12-23T12:21:05.185Z,12.90
2022-12-23T12:23:41.928Z,12.90
2022-12-23T12:26:15.959Z,12.90
2022-12-23T12:28:47.662Z,12.90
2022-12-23T12:31:24.095Z,12.90
2022-12-23T12:33:58.858Z,13.00
2022-12-23T12:36:42.021Z,13.00
2022-12-23T12:39:20.552Z,12.90
2022-12-23T12:41:54.223Z,12.90
2022-12-23T12:44:33.359Z,12.90
2022-12-23T12:47:27.938Z,12.90
2022-12-23T12:50:01.544Z,12.90
2022-12-23T12:52:40.928Z,12.90
2022-12-23T12:55:18.653Z,12.90
2022-12-23T12:57:47.049Z,12.90
2022-12-23T13:00:17.701Z,12.90
2022-12-23T13:03:12.401Z,12.90
2022-12-23T13:06:00.184Z,12.90
2022-12-23T13:08:47.225Z,12.90
2022-12-23T13:11:26.569Z,12.90
2022-12-23T13:14:03.022Z,12.90
2022-12-23T13:16:42.026Z,12.90
2022-12-23T13:19:23.550Z,12.90
2022-12-23T13:21:56.510Z,12.90
2022-12-23T13:24:32.577Z,12.90
2022-12-23T13:27:07.747Z,12.90
2022-12-23T13:29:56.145Z,12.90
2022-12-23T13:32:51.435Z,12.90
2022-12-23T13:35:34.018Z,12.90
2022-12-23T13:38:16.150Z,12.90
2022-12-23T13:40:56.104Z,12.90
2022-12-23T13:43:32.111Z,12.90
2022-12-23T13:46:04.144Z,12.90
2022-12-23T13:48:42.200Z,12.90
2022-12-23T13:51:17.793Z,12.90
2022-12-23T13:54:04.188Z,12.90
2022-12-23T13:56:43.493Z,12.80
2022-12-23T13:59:13.552Z,12.80
2022-12-23T14:01:48.534Z,12.90
2022-12-23T14:04:32.919Z,12.80
2022-12-23T14:07:05.665Z,12.90
2022-12-23T14:09:37.179Z,12.90
2022-12-23T14:12:23.471Z,12.90
2022-12-23T14:15:05.480Z,12.80
2022-12-23T14:17:43.617Z,12.90
2022-12-23T14:20:28.019Z,12.80
2022-12-23T14:23:05.329Z,12.80
2022-12-23T14:26:05.401Z,12.80
2022-12-23T14:28:51.326Z,12.80
2022-12-23T14:31:36.235Z,12.80
2022-12-23T14:34:25.824Z,12.80
2022-12-23T14:37:31.925Z,12.90
2022-12-23T14:40:50.989Z,12.90
2022-12-23T14:43:33.784Z,12.80
2022-12-23T14:46:05.955Z,12.80
2022-12-23T14:49:29.379Z,12.80
2022-12-23T14:51:48.480Z,12.80
2022-12-23T14:54:17.799Z,12.60
2022-12-23T14:57:01.687Z,12.80
2022-12-23T14:59:40.584Z,12.80
2022-12-23T15:02:21.636Z,12.80
2022-12-23T15:04:55.179Z,12.80
2022-12-23T15:07:27.801Z,12.80
2022-12-23T15:10:01.331Z,12.80
2022-12-23T15:12:37.498Z,12.80
2022-12-23T15:15:08.524Z,12.80
2022-12-23T15:17:38.283Z,12.90
2022-12-23T15:20:14.902Z,12.80
2022-12-23T15:22:46.000Z,12.90
2022-12-23T15:25:22.668Z,12.90
2022-12-23T15:27:54.739Z,12.90
2022-12-23T15:30:29.552Z,13.10
2022-12-23T15:33:02.553Z,12.90
2022-12-23T15:35:33.164Z,12.90
2022-12-23T15:38:03.269Z,12.90
2022-12-23T15:40:34.344Z,12.90
2022-12-23T15:43:04.076Z,13.00
2022-12-23T15:45:36.381Z,13.00
2022-12-23T15:48:23.126Z,13.00
2022-12-23T15:50:54.460Z,13.00
2022-12-23T15:53:30.370Z,13.10
2022-12-23T15:55:59.591Z,13.10
2022-12-23T15:58:30.090Z,13.10
2022-12-23T16:01:00.550Z,13.10
2022-12-23T16:03:35.568Z,13.10
2022-12-23T16:06:09.271Z,13.10
2022-12-23T16:08:39.444Z,12.80
2022-12-23T16:11:14.898Z,13.20
2022-12-23T16:13:58.330Z,13.20
2022-12-23T16:16:40.880Z,13.20
2022-12-23T16:19:48.233Z,13.20
2022-12-23T16:22:25.878Z,13.30
2022-12-23T16:25:04.312Z,13.30
2022-12-23T16:27:39.898Z,13.30
2022-12-23T16:30:16.640Z,13.30
2022-12-23T16:32:49.940Z,13.30
2022-12-23T16:35:30.520Z,13.30
2022-12-23T16:38:11.033Z,13.30
2022-12-23T16:40:39.766Z,13.30
2022-12-23T16:43:08.122Z,13.30
2022-12-23T16:45:37.499Z,13.40
2022-12-23T16:48:11.790Z,13.40
2022-12-23T16:50:40.129Z,13.40
2022-12-23T16:53:13.196Z,13.40
2022-12-23T16:55:48.297Z,13.40
2022-12-23T16:58:19.656Z,13.40
2022-12-23T17:00:48.740Z,13.40
2022-12-23T17:03:18.980Z,13.40
2022-12-23T17:05:48.830Z,13.40
2022-12-23T17:08:18.705Z,13.40
2022-12-23T17:10:47.490Z,13.40
2022-12-23T17:13:18.519Z,13.40
2022-12-23T17:15:46.919Z,13.40
2022-12-23T17:18:17.536Z,13.40
2022-12-23T17:20:47.387Z,13.40
2022-12-23T17:23:27.088Z,13.40
2022-12-23T17:25:55.479Z,13.40
2022-12-23T17:28:24.946Z,13.40
2022-12-23T17:30:56.398Z,13.40
2022-12-23T17:33:27.898Z,13.40
2022-12-23T17:35:56.670Z,13.40
2022-12-23T17:38:27.378Z,13.40
2022-12-23T17:40:58.440Z,13.40
2022-12-23T17:43:27.615Z,13.40
2022-12-23T17:45:56.111Z,13.40
2022-12-23T17:48:31.073Z,13.40
2022-12-23T17:51:00.228Z,13.40
2022-12-23T17:53:30.100Z,13.40
2022-12-23T17:55:58.561Z,13.30
2022-12-23T17:58:26.917Z,13.30
2022-12-23T18:00:55.365Z,13.30
2022-12-23T18:03:24.869Z,13.30
2022-12-23T18:06:01.288Z,13.30
2022-12-23T18:08:31.752Z,13.30
2022-12-23T18:11:00.928Z,13.30
2022-12-23T18:13:29.278Z,13.30
2022-12-23T18:15:57.501Z,13.30
2022-12-23T18:18:36.793Z,13.30
2022-12-23T18:21:15.225Z,13.30
2022-12-23T18:23:44.797Z,13.20
2022-12-23T18:26:15.239Z,13.30
2022-12-23T18:28:43.671Z,13.20
2022-12-23T18:31:16.461Z,13.20
2022-12-23T18:33:45.145Z,13.30
2022-12-23T18:36:22.203Z,13.30
2022-12-23T18:38:52.914Z,13.30
2022-12-23T18:41:21.879Z,13.30
2022-12-23T18:43:50.637Z,13.30
2022-12-23T18:46:20.219Z,13.30
2022-12-23T18:48:49.019Z,13.30
2022-12-23T18:51:18.930Z,13.30
2022-12-23T18:53:47.899Z,13.50
2022-12-23T18:56:21.047Z,13.30
2022-12-23T18:58:49.752Z,13.60
2022-12-23T19:01:19.619Z,13.40
2022-12-23T19:03:48.629Z,13.50
2022-12-23T19:06:17.238Z,13.30
2022-12-23T19:08:45.718Z,13.40
2022-12-23T19:11:15.518Z,13.30
2022-12-23T19:13:45.413Z,13.30
2022-12-23T19:16:15.149Z,13.30
2022-12-23T19:18:46.009Z,13.30
2022-12-23T19:21:14.594Z,13.20
2022-12-23T19:23:43.821Z,13.30
2022-12-23T19:26:13.165Z,13.30
2022-12-23T19:28:42.737Z,13.30
2022-12-23T19:31:14.606Z,13.30
2022-12-23T19:33:47.093Z,13.30
2022-12-23T19:36:17.753Z,13.30
2022-12-23T19:38:46.212Z,13.30
2022-12-23T19:41:15.996Z,13.30
2022-12-23T19:43:46.287Z,13.30
2022-12-23T19:46:17.412Z,13.20
2022-12-23T19:48:51.696Z,13.20
2022-12-23T19:51:20.361Z,13.30
2022-12-23T19:53:52.730Z,13.30
2022-12-23T19:56:22.193Z,13.30
2022-12-23T19:58:51.756Z,13.30
2022-12-23T20:01:22.801Z,13.30
2022-12-23T20:03:51.930Z,13.20
2022-12-23T20:06:23.387Z,13.20
2022-12-23T20:08:56.329Z,13.20
2022-12-23T20:11:30.746Z,13.20
2022-12-23T20:14:00.118Z,13.20
2022-12-23T20:16:30.657Z,13.20
2022-12-23T20:19:00.186Z,13.20
2022-12-23T20:21:28.760Z,13.20
2022-12-23T20:23:57.643Z,13.20
2022-12-23T20:26:27.661Z,13.20
2022-12-23T20:28:56.724Z,13.20
2022-12-23T20:31:26.374Z,13.20
2022-12-23T20:33:58.021Z,13.20
2022-12-23T20:36:29.257Z,13.20
2022-12-23T20:38:58.312Z,13.20
2022-12-23T20:41:28.542Z,13.10
2022-12-23T20:44:32.227Z,13.30
2022-12-23T20:46:45.535Z,13.20
2022-12-23T20:49:15.244Z,13.20
2022-12-23T20:51:43.664Z,13.20
2022-12-23T20:54:12.278Z,13.20
2022-12-23T20:56:41.315Z,13.20
2022-12-23T20:59:11.692Z,13.20
2022-12-23T21:01:46.229Z,13.20
2022-12-23T21:04:19.014Z,13.20
2022-12-23T21:06:47.865Z,13.20
2022-12-23T21:09:17.346Z,13.20
2022-12-23T21:11:50.681Z,13.20
2022-12-23T21:14:22.547Z,13.20
2022-12-23T21:16:51.550Z,13.20
2022-12-23T21:19:23.845Z,13.20
2022-12-23T21:21:53.257Z,13.20
2022-12-23T21:24:25.703Z,13.20
2022-12-23T21:26:56.729Z,13.20
2022-12-23T21:29:27.427Z,13.20
2022-12-23T21:31:56.617Z,13.20
2022-12-23T21:34:27.130Z,13.20
2022-12-23T21:36:59.672Z,13.20
2022-12-23T21:39:29.241Z,13.20
2022-12-23T21:41:57.732Z,13.20
2022-12-23T21:44:26.371Z,13.20
2022-12-23T21:46:55.220Z,13.10
2022-12-23T21:49:24.039Z,13.10
2022-12-23T21:51:55.100Z,13.10
2022-12-23T21:54:23.804Z,13.10
2022-12-23T21:56:53.329Z,13.10
2022-12-23T21:59:25.444Z,13.10
2022-12-23T22:01:55.699Z,13.10
2022-12-23T22:04:25.348Z,13.00
2022-12-23T22:06:55.394Z,13.00
2022-12-23T22:09:23.872Z,13.10
2022-12-23T22:11:52.428Z,13.10
2022-12-23T22:14:20.809Z,13.10
2022-12-23T22:16:51.536Z,13.10
2022-12-23T22:19:21.292Z,13.10
2022-12-23T22:21:50.329Z,13.10
2022-12-23T22:24:20.480Z,13.10
2022-12-23T22:26:49.073Z,13.10
2022-12-23T22:29:17.900Z,13.10
2022-12-23T22:31:48.733Z,13.10
2022-12-23T22:34:19.782Z,13.10
2022-12-23T22:36:48.807Z,13.10
2022-12-23T22:39:22.207Z,13.10
2022-12-23T22:41:52.296Z,13.00
2022-12-23T22:44:21.020Z,13.00
2022-12-23T22:46:49.546Z,13.00
2022-12-23T22:49:18.510Z,13.00
2022-12-23T22:51:47.269Z,13.10
2022-12-23T22:54:16.096Z,13.00
2022-12-23T22:56:46.706Z,13.10
2022-12-23T22:59:21.650Z,13.10
2022-12-23T23:01:51.211Z,13.00
2022-12-23T23:04:19.747Z,13.00
2022-12-23T23:06:48.226Z,13.00
2022-12-23T23:09:19.057Z,13.10
2022-12-23T23:11:49.220Z,13.00
2022-12-23T23:14:18.560Z,13.10
2022-12-23T23:16:47.155Z,13.10
2022-12-23T23:19:16.500Z,13.10
2022-12-23T23:21:44.838Z,13.10
2022-12-23T23:24:13.128Z,13.10
2022-12-23T23:26:41.434Z,13.10
2022-12-23T23:29:11.051Z,13.10
2022-12-23T23:31:42.397Z,13.10
2022-12-23T23:34:11.881Z,13.10
2022-12-23T23:36:40.509Z,13.00
2022-12-23T23:39:09.029Z,13.00
2022-12-23T23:41:37.367Z,13.00
2022-12-23T23:44:05.998Z,13.00
2022-12-23T23:46:36.252Z,13.00
2022-12-23T23:49:05.194Z,13.00
2022-12-23T23:51:33.692Z,12.90
2022-12-23T23:54:02.429Z,12.90
2022-12-23T23:56:37.469Z,13.00
2022-12-23T23:59:06.333Z,12.90
